sensor_id;sensor_type;location;lat;lon;timestamp;temperature;humidity
11597;DHT22;5854;48.072;16.286;2024-03-22T00:00:58;12.70;56.50
11597;DHT22;5854;48.072;16.286;2024-03-22T00:03:26;12.70;57.20
11597;DHT22;5854;48.072;16.286;2024-03-22T00:05:52;12.50;57.70
11597;DHT22;5854;48.072;16.286;2024-03-22T00:08:19;12.50;57.90
11597;DHT22;5854;48.072;16.286;2024-03-22T00:10:47;12.50;57.90
11597;DHT22;5854;48.072;16.286;2024-03-22T00:13:14;12.50;58.20
11597;DHT22;5854;48.072;16.286;2024-03-22T00:15:40;12.50;57.80
11597;DHT22;5854;48.072;16.286;2024-03-22T00:18:10;12.50;58.10
11597;DHT22;5854;48.072;16.286;2024-03-22T00:20:36;12.50;57.10
11597;DHT22;5854;48.072;16.286;2024-03-22T00:23:03;12.40;59.20
11597;DHT22;5854;48.072;16.286;2024-03-22T00:25:30;12.50;57.90
11597;DHT22;5854;48.072;16.286;2024-03-22T00:27:59;12.50;58.70
11597;DHT22;5854;48.072;16.286;2024-03-22T00:30:25;12.50;59.00
11597;DHT22;5854;48.072;16.286;2024-03-22T00:32:52;12.50;58.10
11597;DHT22;5854;48.072;16.286;2024-03-22T00:35:18;12.40;59.50
11597;DHT22;5854;48.072;16.286;2024-03-22T00:37:46;12.50;59.20
11597;DHT22;5854;48.072;16.286;2024-03-22T00:40:12;12.40;58.90
11597;DHT22;5854;48.072;16.286;2024-03-22T00:42:40;12.40;59.10
11597;DHT22;5854;48.072;16.286;2024-03-22T00:45:08;12.40;58.80
11597;DHT22;5854;48.072;16.286;2024-03-22T00:47:35;12.50;58.50
11597;DHT22;5854;48.072;16.286;2024-03-22T00:50:01;12.50;56.90
11597;DHT22;5854;48.072;16.286;2024-03-22T00:52:28;12.50;58.30
11597;DHT22;5854;48.072;16.286;2024-03-22T00:54:55;12.40;58.20
11597;DHT22;5854;48.072;16.286;2024-03-22T00:57:22;12.40;58.10
11597;DHT22;5854;48.072;16.286;2024-03-22T00:59:48;12.40;58.20
11597;DHT22;5854;48.072;16.286;2024-03-22T01:02:17;12.50;59.70
11597;DHT22;5854;48.072;16.286;2024-03-22T01:04:43;12.50;59.30
11597;DHT22;5854;48.072;16.286;2024-03-22T01:07:10;12.40;58.90
11597;DHT22;5854;48.072;16.286;2024-03-22T01:09:37;12.40;59.00
11597;DHT22;5854;48.072;16.286;2024-03-22T01:12:04;12.40;58.70
11597;DHT22;5854;48.072;16.286;2024-03-22T01:14:31;12.40;59.00
11597;DHT22;5854;48.072;16.286;2024-03-22T01:16:58;12.40;59.30
11597;DHT22;5854;48.072;16.286;2024-03-22T01:19:25;12.30;59.50
11597;DHT22;5854;48.072;16.286;2024-03-22T01:21:53;12.40;58.30
11597;DHT22;5854;48.072;16.286;2024-03-22T01:24:19;12.40;58.50
11597;DHT22;5854;48.072;16.286;2024-03-22T01:26:46;12.40;58.30
11597;DHT22;5854;48.072;16.286;2024-03-22T01:29:14;12.30;59.20
11597;DHT22;5854;48.072;16.286;2024-03-22T01:31:41;12.40;58.80
11597;DHT22;5854;48.072;16.286;2024-03-22T01:34:07;12.40;57.50
11597;DHT22;5854;48.072;16.286;2024-03-22T01:36:37;12.40;58.50
11597;DHT22;5854;48.072;16.286;2024-03-22T01:39:03;12.30;58.60
11597;DHT22;5854;48.072;16.286;2024-03-22T01:41:31;12.30;58.50
11597;DHT22;5854;48.072;16.286;2024-03-22T01:43:57;12.40;58.50
11597;DHT22;5854;48.072;16.286;2024-03-22T01:46:25;12.30;58.40
11597;DHT22;5854;48.072;16.286;2024-03-22T01:48:51;12.30;58.20
11597;DHT22;5854;48.072;16.286;2024-03-22T01:51:19;12.30;58.20
11597;DHT22;5854;48.072;16.286;2024-03-22T01:53:47;12.30;58.30
11597;DHT22;5854;48.072;16.286;2024-03-22T01:56:15;12.30;58.60
11597;DHT22;5854;48.072;16.286;2024-03-22T01:58:41;12.30;58.30
11597;DHT22;5854;48.072;16.286;2024-03-22T02:01:09;12.30;57.50
11597;DHT22;5854;48.072;16.286;2024-03-22T02:03:35;12.30;59.50
11597;DHT22;5854;48.072;16.286;2024-03-22T02:06:03;12.30;58.60
11597;DHT22;5854;48.072;16.286;2024-03-22T02:08:30;12.30;59.50
11597;DHT22;5854;48.072;16.286;2024-03-22T02:10:58;12.30;57.50
11597;DHT22;5854;48.072;16.286;2024-03-22T02:13:25;12.30;57.50
11597;DHT22;5854;48.072;16.286;2024-03-22T02:15:52;12.30;58.50
11597;DHT22;5854;48.072;16.286;2024-03-22T02:18:18;12.30;58.30
11597;DHT22;5854;48.072;16.286;2024-03-22T02:20:45;12.20;60.00
11597;DHT22;5854;48.072;16.286;2024-03-22T02:23:12;12.20;60.80
11597;DHT22;5854;48.072;16.286;2024-03-22T02:25:40;12.20;59.60
11597;DHT22;5854;48.072;16.286;2024-03-22T02:28:06;12.30;57.20
11597;DHT22;5854;48.072;16.286;2024-03-22T02:30:34;12.30;58.80
11597;DHT22;5854;48.072;16.286;2024-03-22T02:33:00;12.20;59.50
11597;DHT22;5854;48.072;16.286;2024-03-22T02:35:27;12.20;59.60
11597;DHT22;5854;48.072;16.286;2024-03-22T02:37:53;12.20;58.00
11597;DHT22;5854;48.072;16.286;2024-03-22T02:40:23;12.10;59.70
11597;DHT22;5854;48.072;16.286;2024-03-22T02:42:51;12.10;59.30
11597;DHT22;5854;48.072;16.286;2024-03-22T02:45:18;12.10;59.70
11597;DHT22;5854;48.072;16.286;2024-03-22T02:47:44;12.10;58.80
11597;DHT22;5854;48.072;16.286;2024-03-22T02:50:12;12.10;59.70
11597;DHT22;5854;48.072;16.286;2024-03-22T02:52:38;12.10;58.20
11597;DHT22;5854;48.072;16.286;2024-03-22T02:55:06;12.10;59.10
11597;DHT22;5854;48.072;16.286;2024-03-22T02:57:33;12.10;58.40
11597;DHT22;5854;48.072;16.286;2024-03-22T03:00:02;12.10;58.90
11597;DHT22;5854;48.072;16.286;2024-03-22T03:02:29;12.10;59.80
11597;DHT22;5854;48.072;16.286;2024-03-22T03:04:56;12.10;58.40
11597;DHT22;5854;48.072;16.286;2024-03-22T03:07:23;12.10;59.50
11597;DHT22;5854;48.072;16.286;2024-03-22T03:09:50;12.10;60.50
11597;DHT22;5854;48.072;16.286;2024-03-22T03:12:17;12.10;58.70
11597;DHT22;5854;48.072;16.286;2024-03-22T03:14:44;12.00;58.70
11597;DHT22;5854;48.072;16.286;2024-03-22T03:17:12;12.00;58.50
11597;DHT22;5854;48.072;16.286;2024-03-22T03:19:39;12.00;59.50
11597;DHT22;5854;48.072;16.286;2024-03-22T03:22:05;12.00;59.60
11597;DHT22;5854;48.072;16.286;2024-03-22T03:24:33;12.00;59.30
11597;DHT22;5854;48.072;16.286;2024-03-22T03:26:59;12.00;59.10
11597;DHT22;5854;48.072;16.286;2024-03-22T03:29:26;12.00;58.70
11597;DHT22;5854;48.072;16.286;2024-03-22T03:31:52;12.00;58.80
11597;DHT22;5854;48.072;16.286;2024-03-22T03:34:21;11.90;59.00
11597;DHT22;5854;48.072;16.286;2024-03-22T03:36:47;11.90;59.40
11597;DHT22;5854;48.072;16.286;2024-03-22T03:39:15;12.00;58.90
11597;DHT22;5854;48.072;16.286;2024-03-22T03:41:41;11.90;59.40
11597;DHT22;5854;48.072;16.286;2024-03-22T03:44:08;11.90;59.30
11597;DHT22;5854;48.072;16.286;2024-03-22T03:46:34;11.90;59.90
11597;DHT22;5854;48.072;16.286;2024-03-22T03:49:02;11.90;59.80
11597;DHT22;5854;48.072;16.286;2024-03-22T03:51:29;11.90;58.80
11597;DHT22;5854;48.072;16.286;2024-03-22T03:53:57;11.80;60.20
11597;DHT22;5854;48.072;16.286;2024-03-22T03:56:23;11.90;59.40
11597;DHT22;5854;48.072;16.286;2024-03-22T03:58:50;11.90;58.40
11597;DHT22;5854;48.072;16.286;2024-03-22T04:01:16;11.90;59.60
11597;DHT22;5854;48.072;16.286;2024-03-22T04:03:44;12.00;59.20
11597;DHT22;5854;48.072;16.286;2024-03-22T04:06:10;12.00;58.10
11597;DHT22;5854;48.072;16.286;2024-03-22T04:08:39;11.90;58.50
11597;DHT22;5854;48.072;16.286;2024-03-22T04:11:05;12.00;58.70
11597;DHT22;5854;48.072;16.286;2024-03-22T04:13:32;11.90;58.90
11597;DHT22;5854;48.072;16.286;2024-03-22T04:15:59;11.90;58.40
11597;DHT22;5854;48.072;16.286;2024-03-22T04:18:26;11.90;59.30
11597;DHT22;5854;48.072;16.286;2024-03-22T04:20:54;11.90;58.30
11597;DHT22;5854;48.072;16.286;2024-03-22T04:23:21;11.90;58.40
11597;DHT22;5854;48.072;16.286;2024-03-22T04:25:54;11.90;58.80
11597;DHT22;5854;48.072;16.286;2024-03-22T04:28:21;11.90;58.30
11597;DHT22;5854;48.072;16.286;2024-03-22T04:30:55;11.90;58.20
11597;DHT22;5854;48.072;16.286;2024-03-22T04:33:23;12.00;57.80
11597;DHT22;5854;48.072;16.286;2024-03-22T04:35:49;11.90;58.00
11597;DHT22;5854;48.072;16.286;2024-03-22T04:38:17;11.90;57.90
11597;DHT22;5854;48.072;16.286;2024-03-22T04:40:44;11.90;58.40
11597;DHT22;5854;48.072;16.286;2024-03-22T04:43:11;11.90;58.30
11597;DHT22;5854;48.072;16.286;2024-03-22T04:45:39;11.90;57.80
11597;DHT22;5854;48.072;16.286;2024-03-22T04:48:07;11.90;57.80
11597;DHT22;5854;48.072;16.286;2024-03-22T04:50:34;11.90;58.00
11597;DHT22;5854;48.072;16.286;2024-03-22T04:53:01;11.90;58.10
11597;DHT22;5854;48.072;16.286;2024-03-22T04:55:28;11.90;57.70
11597;DHT22;5854;48.072;16.286;2024-03-22T04:57:54;12.00;57.80
11597;DHT22;5854;48.072;16.286;2024-03-22T05:00:23;12.00;57.50
11597;DHT22;5854;48.072;16.286;2024-03-22T05:02:50;11.90;58.20
11597;DHT22;5854;48.072;16.286;2024-03-22T05:05:18;11.90;57.60
11597;DHT22;5854;48.072;16.286;2024-03-22T05:07:44;11.90;58.10
11597;DHT22;5854;48.072;16.286;2024-03-22T05:10:12;11.90;57.80
11597;DHT22;5854;48.072;16.286;2024-03-22T05:12:39;11.90;58.00
11597;DHT22;5854;48.072;16.286;2024-03-22T05:15:07;11.90;57.80
11597;DHT22;5854;48.072;16.286;2024-03-22T05:17:35;11.90;57.70
11597;DHT22;5854;48.072;16.286;2024-03-22T05:20:03;11.90;57.50
11597;DHT22;5854;48.072;16.286;2024-03-22T05:22:31;11.90;57.80
11597;DHT22;5854;48.072;16.286;2024-03-22T05:25:01;12.00;57.20
11597;DHT22;5854;48.072;16.286;2024-03-22T05:27:27;11.90;57.90
11597;DHT22;5854;48.072;16.286;2024-03-22T05:29:54;11.90;57.50
11597;DHT22;5854;48.072;16.286;2024-03-22T05:32:21;11.90;58.30
11597;DHT22;5854;48.072;16.286;2024-03-22T05:34:49;11.80;58.30
11597;DHT22;5854;48.072;16.286;2024-03-22T05:37:16;11.80;58.30
11597;DHT22;5854;48.072;16.286;2024-03-22T05:39:43;11.80;59.10
11597;DHT22;5854;48.072;16.286;2024-03-22T05:42:09;11.90;58.00
11597;DHT22;5854;48.072;16.286;2024-03-22T05:44:36;11.90;57.60
11597;DHT22;5854;48.072;16.286;2024-03-22T05:47:03;11.90;58.00
11597;DHT22;5854;48.072;16.286;2024-03-22T05:49:30;11.90;58.40
11597;DHT22;5854;48.072;16.286;2024-03-22T05:51:58;11.90;58.00
11597;DHT22;5854;48.072;16.286;2024-03-22T05:54:25;11.90;57.30
11597;DHT22;5854;48.072;16.286;2024-03-22T05:56:52;11.90;58.20
11597;DHT22;5854;48.072;16.286;2024-03-22T05:59:19;11.90;57.40
11597;DHT22;5854;48.072;16.286;2024-03-22T06:01:45;12.00;57.30
11597;DHT22;5854;48.072;16.286;2024-03-22T06:04:13;12.00;57.10
11597;DHT22;5854;48.072;16.286;2024-03-22T06:06:39;12.00;57.80
11597;DHT22;5854;48.072;16.286;2024-03-22T06:09:07;12.00;58.20
11597;DHT22;5854;48.072;16.286;2024-03-22T06:11:36;12.00;57.60
11597;DHT22;5854;48.072;16.286;2024-03-22T06:14:04;12.10;57.40
11597;DHT22;5854;48.072;16.286;2024-03-22T06:16:30;12.10;57.00
11597;DHT22;5854;48.072;16.286;2024-03-22T06:18:57;12.10;58.00
11597;DHT22;5854;48.072;16.286;2024-03-22T06:21:23;12.10;57.70
11597;DHT22;5854;48.072;16.286;2024-03-22T06:23:52;12.10;56.70
11597;DHT22;5854;48.072;16.286;2024-03-22T06:26:20;12.10;57.50
11597;DHT22;5854;48.072;16.286;2024-03-22T06:28:47;12.20;56.50
11597;DHT22;5854;48.072;16.286;2024-03-22T06:31:13;12.10;57.40
11597;DHT22;5854;48.072;16.286;2024-03-22T06:33:41;12.20;56.80
11597;DHT22;5854;48.072;16.286;2024-03-22T06:36:08;12.20;57.10
11597;DHT22;5854;48.072;16.286;2024-03-22T06:38:35;12.20;58.10
11597;DHT22;5854;48.072;16.286;2024-03-22T06:41:01;12.20;57.50
11597;DHT22;5854;48.072;16.286;2024-03-22T06:43:31;12.20;58.20
11597;DHT22;5854;48.072;16.286;2024-03-22T06:45:57;12.20;58.30
11597;DHT22;5854;48.072;16.286;2024-03-22T06:48:24;12.20;57.30
11597;DHT22;5854;48.072;16.286;2024-03-22T06:50:50;12.20;57.30
11597;DHT22;5854;48.072;16.286;2024-03-22T06:53:17;12.30;57.40
11597;DHT22;5854;48.072;16.286;2024-03-22T06:55:44;12.20;56.80
11597;DHT22;5854;48.072;16.286;2024-03-22T06:58:11;12.30;57.30
11597;DHT22;5854;48.072;16.286;2024-03-22T07:00:39;12.20;57.20
11597;DHT22;5854;48.072;16.286;2024-03-22T07:03:06;12.20;56.80
11597;DHT22;5854;48.072;16.286;2024-03-22T07:05:32;12.20;57.10
11597;DHT22;5854;48.072;16.286;2024-03-22T07:07:59;12.20;56.90
11597;DHT22;5854;48.072;16.286;2024-03-22T07:10:25;12.20;57.80
11597;DHT22;5854;48.072;16.286;2024-03-22T07:12:54;12.20;57.30
11597;DHT22;5854;48.072;16.286;2024-03-22T07:15:21;12.20;57.40
11597;DHT22;5854;48.072;16.286;2024-03-22T07:17:51;12.30;56.70
11597;DHT22;5854;48.072;16.286;2024-03-22T07:20:17;12.40;56.40
11597;DHT22;5854;48.072;16.286;2024-03-22T07:22:45;12.40;56.80
11597;DHT22;5854;48.072;16.286;2024-03-22T07:25:12;12.40;56.50
11597;DHT22;5854;48.072;16.286;2024-03-22T07:27:39;12.50;55.90
11597;DHT22;5854;48.072;16.286;2024-03-22T07:30:06;12.50;57.20
11597;DHT22;5854;48.072;16.286;2024-03-22T07:32:34;12.60;55.80
11597;DHT22;5854;48.072;16.286;2024-03-22T07:35:01;12.60;55.40
11597;DHT22;5854;48.072;16.286;2024-03-22T07:37:29;12.60;55.30
11597;DHT22;5854;48.072;16.286;2024-03-22T07:39:55;12.60;55.50
11597;DHT22;5854;48.072;16.286;2024-03-22T07:42:22;12.70;55.40
11597;DHT22;5854;48.072;16.286;2024-03-22T07:44:48;12.70;54.80
11597;DHT22;5854;48.072;16.286;2024-03-22T07:47:16;12.80;55.00
11597;DHT22;5854;48.072;16.286;2024-03-22T07:49:42;12.80;54.40
11597;DHT22;5854;48.072;16.286;2024-03-22T07:52:11;12.90;54.10
11597;DHT22;5854;48.072;16.286;2024-03-22T07:54:37;13.00;54.10
11597;DHT22;5854;48.072;16.286;2024-03-22T07:57:04;13.00;53.80
11597;DHT22;5854;48.072;16.286;2024-03-22T07:59:31;13.00;53.70
11597;DHT22;5854;48.072;16.286;2024-03-22T08:01:59;13.00;53.40
11597;DHT22;5854;48.072;16.286;2024-03-22T08:04:25;13.10;53.80
11597;DHT22;5854;48.072;16.286;2024-03-22T08:06:53;13.10;53.30
11597;DHT22;5854;48.072;16.286;2024-03-22T08:09:21;13.00;53.30
11597;DHT22;5854;48.072;16.286;2024-03-22T08:11:48;13.20;53.30
11597;DHT22;5854;48.072;16.286;2024-03-22T08:14:14;13.30;52.90
11597;DHT22;5854;48.072;16.286;2024-03-22T08:16:42;13.40;52.90
11597;DHT22;5854;48.072;16.286;2024-03-22T08:19:08;13.40;52.30
11597;DHT22;5854;48.072;16.286;2024-03-22T08:21:36;13.40;51.70
11597;DHT22;5854;48.072;16.286;2024-03-22T08:24:02;13.40;52.40
11597;DHT22;5854;48.072;16.286;2024-03-22T08:26:32;13.30;52.20
11597;DHT22;5854;48.072;16.286;2024-03-22T08:28:58;13.50;52.00
11597;DHT22;5854;48.072;16.286;2024-03-22T08:31:25;13.60;51.70
11597;DHT22;5854;48.072;16.286;2024-03-22T08:33:54;13.70;52.10
11597;DHT22;5854;48.072;16.286;2024-03-22T08:36:22;13.60;51.30
11597;DHT22;5854;48.072;16.286;2024-03-22T08:38:49;13.50;51.90
11597;DHT22;5854;48.072;16.286;2024-03-22T08:41:16;13.60;51.60
11597;DHT22;5854;48.072;16.286;2024-03-22T08:43:44;13.60;51.40
11597;DHT22;5854;48.072;16.286;2024-03-22T08:46:12;13.60;50.90
11597;DHT22;5854;48.072;16.286;2024-03-22T08:48:38;13.70;51.30
11597;DHT22;5854;48.072;16.286;2024-03-22T08:51:05;13.80;51.30
11597;DHT22;5854;48.072;16.286;2024-03-22T08:53:31;13.90;51.00
11597;DHT22;5854;48.072;16.286;2024-03-22T08:55:59;14.00;50.10
11597;DHT22;5854;48.072;16.286;2024-03-22T08:58:25;14.20;49.80
11597;DHT22;5854;48.072;16.286;2024-03-22T09:00:54;14.00;50.20
11597;DHT22;5854;48.072;16.286;2024-03-22T09:03:20;14.20;49.90
11597;DHT22;5854;48.072;16.286;2024-03-22T09:05:48;14.20;49.20
11597;DHT22;5854;48.072;16.286;2024-03-22T09:08:18;14.20;50.50
11597;DHT22;5854;48.072;16.286;2024-03-22T09:10:45;14.20;49.20
11597;DHT22;5854;48.072;16.286;2024-03-22T09:13:11;14.10;49.00
11597;DHT22;5854;48.072;16.286;2024-03-22T09:15:39;14.10;50.30
11597;DHT22;5854;48.072;16.286;2024-03-22T09:18:06;14.30;49.30
11597;DHT22;5854;48.072;16.286;2024-03-22T09:20:33;14.30;49.10
11597;DHT22;5854;48.072;16.286;2024-03-22T09:23:00;14.00;50.00
11597;DHT22;5854;48.072;16.286;2024-03-22T09:25:27;14.00;50.40
11597;DHT22;5854;48.072;16.286;2024-03-22T09:27:53;14.10;49.10
11597;DHT22;5854;48.072;16.286;2024-03-22T09:30:21;14.20;50.00
11597;DHT22;5854;48.072;16.286;2024-03-22T09:32:47;14.30;48.70
11597;DHT22;5854;48.072;16.286;2024-03-22T09:35:16;14.40;48.90
11597;DHT22;5854;48.072;16.286;2024-03-22T09:37:43;14.50;49.20
11597;DHT22;5854;48.072;16.286;2024-03-22T09:40:11;14.40;47.90
11597;DHT22;5854;48.072;16.286;2024-03-22T09:42:38;14.50;48.60
11597;DHT22;5854;48.072;16.286;2024-03-22T09:45:08;14.30;48.50
11597;DHT22;5854;48.072;16.286;2024-03-22T09:47:36;14.30;49.40
11597;DHT22;5854;48.072;16.286;2024-03-22T09:50:07;14.40;48.00
11597;DHT22;5854;48.072;16.286;2024-03-22T09:52:38;14.50;48.50
11597;DHT22;5854;48.072;16.286;2024-03-22T09:55:06;14.60;48.60
11597;DHT22;5854;48.072;16.286;2024-03-22T09:57:35;14.60;47.80
11597;DHT22;5854;48.072;16.286;2024-03-22T10:00:07;14.70;47.80
11597;DHT22;5854;48.072;16.286;2024-03-22T10:02:35;14.80;48.50
11597;DHT22;5854;48.072;16.286;2024-03-22T10:05:03;14.80;47.30
11597;DHT22;5854;48.072;16.286;2024-03-22T10:07:30;14.80;46.10
11597;DHT22;5854;48.072;16.286;2024-03-22T10:10:00;15.00;46.30
11597;DHT22;5854;48.072;16.286;2024-03-22T10:12:26;14.80;46.00
11597;DHT22;5854;48.072;16.286;2024-03-22T10:14:54;15.20;46.60
11597;DHT22;5854;48.072;16.286;2024-03-22T10:17:20;15.60;45.30
11597;DHT22;5854;48.072;16.286;2024-03-22T10:19:48;15.70;44.50
11597;DHT22;5854;48.072;16.286;2024-03-22T10:22:16;15.80;45.20
11597;DHT22;5854;48.072;16.286;2024-03-22T10:24:43;15.60;45.60
11597;DHT22;5854;48.072;16.286;2024-03-22T10:27:11;15.50;45.20
11597;DHT22;5854;48.072;16.286;2024-03-22T10:29:39;15.40;45.50
11597;DHT22;5854;48.072;16.286;2024-03-22T10:32:06;15.30;45.30
11597;DHT22;5854;48.072;16.286;2024-03-22T10:34:35;15.20;46.50
11597;DHT22;5854;48.072;16.286;2024-03-22T10:37:01;14.90;46.10
11597;DHT22;5854;48.072;16.286;2024-03-22T10:39:30;14.80;48.00
11597;DHT22;5854;48.072;16.286;2024-03-22T10:41:57;14.90;45.90
11597;DHT22;5854;48.072;16.286;2024-03-22T10:44:25;14.80;46.90
11597;DHT22;5854;48.072;16.286;2024-03-22T10:46:54;15.00;45.40
11597;DHT22;5854;48.072;16.286;2024-03-22T10:49:23;15.20;42.40
11597;DHT22;5854;48.072;16.286;2024-03-22T10:51:52;15.20;46.50
11597;DHT22;5854;48.072;16.286;2024-03-22T10:54:27;15.20;46.70
11597;DHT22;5854;48.072;16.286;2024-03-22T10:56:57;15.20;45.30
11597;DHT22;5854;48.072;16.286;2024-03-22T10:59:26;15.20;46.20
11597;DHT22;5854;48.072;16.286;2024-03-22T11:01:52;15.20;45.60
11597;DHT22;5854;48.072;16.286;2024-03-22T11:04:20;15.20;46.00
11597;DHT22;5854;48.072;16.286;2024-03-22T11:06:48;15.10;44.30
11597;DHT22;5854;48.072;16.286;2024-03-22T11:09:20;15.20;44.70
11597;DHT22;5854;48.072;16.286;2024-03-22T11:11:47;15.40;44.90
11597;DHT22;5854;48.072;16.286;2024-03-22T11:14:14;15.40;44.50
11597;DHT22;5854;48.072;16.286;2024-03-22T11:16:44;15.20;45.80
11597;DHT22;5854;48.072;16.286;2024-03-22T11:19:11;15.30;44.00
11597;DHT22;5854;48.072;16.286;2024-03-22T11:21:38;15.50;43.90
11597;DHT22;5854;48.072;16.286;2024-03-22T11:24:06;15.60;46.00
11597;DHT22;5854;48.072;16.286;2024-03-22T11:26:33;15.50;41.90
11597;DHT22;5854;48.072;16.286;2024-03-22T11:29:00;15.80;44.20
11597;DHT22;5854;48.072;16.286;2024-03-22T11:31:27;15.90;43.30
11597;DHT22;5854;48.072;16.286;2024-03-22T11:33:56;15.90;44.70
11597;DHT22;5854;48.072;16.286;2024-03-22T11:36:23;15.90;44.40
11597;DHT22;5854;48.072;16.286;2024-03-22T11:38:50;15.60;45.60
11597;DHT22;5854;48.072;16.286;2024-03-22T11:41:21;15.60;44.30
11597;DHT22;5854;48.072;16.286;2024-03-22T11:43:53;15.70;42.80
11597;DHT22;5854;48.072;16.286;2024-03-22T11:46:20;15.80;43.70
11597;DHT22;5854;48.072;16.286;2024-03-22T11:48:51;16.00;43.80
11597;DHT22;5854;48.072;16.286;2024-03-22T11:51:19;16.10;43.90
11597;DHT22;5854;48.072;16.286;2024-03-22T11:53:50;15.90;43.00
11597;DHT22;5854;48.072;16.286;2024-03-22T11:56:18;16.00;42.10
11597;DHT22;5854;48.072;16.286;2024-03-22T11:58:46;15.80;42.80
11597;DHT22;5854;48.072;16.286;2024-03-22T12:01:14;15.80;43.00
11597;DHT22;5854;48.072;16.286;2024-03-22T12:03:43;15.60;43.20
11597;DHT22;5854;48.072;16.286;2024-03-22T12:06:10;15.60;41.60
11597;DHT22;5854;48.072;16.286;2024-03-22T12:08:39;15.50;42.80
11597;DHT22;5854;48.072;16.286;2024-03-22T12:11:07;15.50;40.60
11597;DHT22;5854;48.072;16.286;2024-03-22T12:13:35;15.60;40.90
11597;DHT22;5854;48.072;16.286;2024-03-22T12:16:02;15.70;42.70
11597;DHT22;5854;48.072;16.286;2024-03-22T12:18:30;15.70;37.80
11597;DHT22;5854;48.072;16.286;2024-03-22T12:20:57;15.90;39.90
11597;DHT22;5854;48.072;16.286;2024-03-22T12:23:24;16.10;39.40
11597;DHT22;5854;48.072;16.286;2024-03-22T12:25:52;16.20;39.60
11597;DHT22;5854;48.072;16.286;2024-03-22T12:28:21;16.20;34.20
11597;DHT22;5854;48.072;16.286;2024-03-22T12:30:47;16.30;40.70
11597;DHT22;5854;48.072;16.286;2024-03-22T12:33:15;16.20;39.70
11597;DHT22;5854;48.072;16.286;2024-03-22T12:35:41;16.30;37.00
11597;DHT22;5854;48.072;16.286;2024-03-22T12:38:09;16.40;36.60
11597;DHT22;5854;48.072;16.286;2024-03-22T12:40:36;16.50;39.10
11597;DHT22;5854;48.072;16.286;2024-03-22T12:43:05;16.70;38.90
11597;DHT22;5854;48.072;16.286;2024-03-22T12:45:31;16.60;39.60
11597;DHT22;5854;48.072;16.286;2024-03-22T12:47:59;16.60;38.40
11597;DHT22;5854;48.072;16.286;2024-03-22T12:50:26;16.70;38.30
11597;DHT22;5854;48.072;16.286;2024-03-22T12:52:54;16.70;37.80
11597;DHT22;5854;48.072;16.286;2024-03-22T12:55:20;16.80;39.10
11597;DHT22;5854;48.072;16.286;2024-03-22T12:57:47;16.90;37.10
11597;DHT22;5854;48.072;16.286;2024-03-22T13:00:16;16.80;34.70
11597;DHT22;5854;48.072;16.286;2024-03-22T13:02:45;16.70;41.50
11597;DHT22;5854;48.072;16.286;2024-03-22T13:05:12;16.70;40.10
11597;DHT22;5854;48.072;16.286;2024-03-22T13:07:41;16.70;35.20
11597;DHT22;5854;48.072;16.286;2024-03-22T13:10:08;16.60;40.20
11597;DHT22;5854;48.072;16.286;2024-03-22T13:12:36;16.60;42.30
11597;DHT22;5854;48.072;16.286;2024-03-22T13:15:03;16.70;41.50
11597;DHT22;5854;48.072;16.286;2024-03-22T13:17:33;16.70;33.90
11597;DHT22;5854;48.072;16.286;2024-03-22T13:19:59;16.90;39.70
11597;DHT22;5854;48.072;16.286;2024-03-22T13:22:26;16.90;40.40
11597;DHT22;5854;48.072;16.286;2024-03-22T13:24:52;16.70;42.00
11597;DHT22;5854;48.072;16.286;2024-03-22T13:27:20;16.70;38.10
11597;DHT22;5854;48.072;16.286;2024-03-22T13:29:48;16.80;37.20
11597;DHT22;5854;48.072;16.286;2024-03-22T13:32:15;16.70;39.20
11597;DHT22;5854;48.072;16.286;2024-03-22T13:34:43;16.70;37.30
11597;DHT22;5854;48.072;16.286;2024-03-22T13:37:10;16.90;40.20
11597;DHT22;5854;48.072;16.286;2024-03-22T13:39:36;17.00;35.50
11597;DHT22;5854;48.072;16.286;2024-03-22T13:42:04;17.10;37.70
11597;DHT22;5854;48.072;16.286;2024-03-22T13:44:32;17.00;36.10
11597;DHT22;5854;48.072;16.286;2024-03-22T13:47:00;16.90;39.60
11597;DHT22;5854;48.072;16.286;2024-03-22T13:49:26;17.00;34.70
11597;DHT22;5854;48.072;16.286;2024-03-22T13:51:58;17.10;37.10
11597;DHT22;5854;48.072;16.286;2024-03-22T13:54:24;16.90;35.40
11597;DHT22;5854;48.072;16.286;2024-03-22T13:56:52;16.90;41.70
11597;DHT22;5854;48.072;16.286;2024-03-22T13:59:18;16.80;40.60
11597;DHT22;5854;48.072;16.286;2024-03-22T14:01:45;16.70;37.40
11597;DHT22;5854;48.072;16.286;2024-03-22T14:04:13;16.80;40.40
11597;DHT22;5854;48.072;16.286;2024-03-22T14:06:41;16.90;36.30
11597;DHT22;5854;48.072;16.286;2024-03-22T14:09:09;16.90;38.70
11597;DHT22;5854;48.072;16.286;2024-03-22T14:11:38;16.90;37.70
11597;DHT22;5854;48.072;16.286;2024-03-22T14:14:05;16.90;39.20
11597;DHT22;5854;48.072;16.286;2024-03-22T14:16:33;17.00;37.20
11597;DHT22;5854;48.072;16.286;2024-03-22T14:18:59;17.10;37.50
11597;DHT22;5854;48.072;16.286;2024-03-22T14:21:27;17.20;38.90
11597;DHT22;5854;48.072;16.286;2024-03-22T14:23:54;17.10;35.60
11597;DHT22;5854;48.072;16.286;2024-03-22T14:26:23;17.10;39.60
11597;DHT22;5854;48.072;16.286;2024-03-22T14:28:49;17.00;39.20
11597;DHT22;5854;48.072;16.286;2024-03-22T14:31:18;16.80;39.30
11597;DHT22;5854;48.072;16.286;2024-03-22T14:33:45;16.90;38.80
11597;DHT22;5854;48.072;16.286;2024-03-22T14:36:12;16.90;35.40
11597;DHT22;5854;48.072;16.286;2024-03-22T14:38:39;16.90;36.20
11597;DHT22;5854;48.072;16.286;2024-03-22T14:41:06;17.00;36.80
11597;DHT22;5854;48.072;16.286;2024-03-22T14:43:34;17.10;39.70
11597;DHT22;5854;48.072;16.286;2024-03-22T14:46:02;17.10;38.20
11597;DHT22;5854;48.072;16.286;2024-03-22T14:48:28;17.00;38.30
11597;DHT22;5854;48.072;16.286;2024-03-22T14:50:56;16.90;36.40
11597;DHT22;5854;48.072;16.286;2024-03-22T14:53:22;16.90;41.10
11597;DHT22;5854;48.072;16.286;2024-03-22T14:55:53;16.90;39.30
11597;DHT22;5854;48.072;16.286;2024-03-22T14:58:20;16.90;38.90
11597;DHT22;5854;48.072;16.286;2024-03-22T15:00:53;17.00;38.80
11597;DHT22;5854;48.072;16.286;2024-03-22T15:03:19;16.90;41.80
11597;DHT22;5854;48.072;16.286;2024-03-22T15:05:48;16.90;39.10
11597;DHT22;5854;48.072;16.286;2024-03-22T15:08:15;16.90;41.80
11597;DHT22;5854;48.072;16.286;2024-03-22T15:10:42;16.80;40.50
11597;DHT22;5854;48.072;16.286;2024-03-22T15:13:09;16.80;40.00
11597;DHT22;5854;48.072;16.286;2024-03-22T15:15:37;16.80;40.00
11597;DHT22;5854;48.072;16.286;2024-03-22T15:18:06;16.90;43.20
11597;DHT22;5854;48.072;16.286;2024-03-22T15:20:33;16.90;42.30
11597;DHT22;5854;48.072;16.286;2024-03-22T15:23:00;16.90;39.30
11597;DHT22;5854;48.072;16.286;2024-03-22T15:25:28;16.90;41.20
11597;DHT22;5854;48.072;16.286;2024-03-22T15:27:54;16.90;42.00
11597;DHT22;5854;48.072;16.286;2024-03-22T15:30:22;16.80;42.20